Time;durP1;ratioP1;P1;durP2;ratioP2;P2;SDS_P1;SDS_P2;PMS_P1;PMS_P2;Temp;Humidity;BMP_temperature;BMP_pressure;BME280_temperature;BME280_humidity;BME280_pressure;Samples;Min_cycle;Max_cycle;Signal;HPM_P1;HPM_P2
2024/01/05 00:00:55;;;;;;;9.30;6.10;;;;;7.50;99565.00;;;;5040308;28;20777;-70
2024/01/05 00:03:42;;;;;;;12.90;6.47;;;;;7.50;99572.00;;;;5045418;28;20389;-69
2024/01/05 00:06:28;;;;;;;12.63;7.17;;;;;7.50;99556.00;;;;5043496;28;20549;-70
2024/01/05 00:09:16;;;;;;;17.13;9.13;;;;;7.40;99564.00;;;;5040948;28;20224;-68
2024/01/05 00:12:04;;;;;;;17.90;10.00;;;;;7.50;99556.00;;;;5040921;28;20242;-67
2024/01/05 00:14:52;;;;;;;20.53;10.57;;;;;7.50;99557.00;;;;5027915;28;20308;-69
2024/01/05 00:17:39;;;;;;;13.50;8.50;;;;;7.50;99547.00;;;;5042318;28;20315;-68
2024/01/05 00:20:25;;;;;;;16.03;8.83;;;;;7.50;99540.00;;;;5036924;28;20278;-69
2024/01/05 00:23:12;;;;;;;18.90;7.77;;;;;7.60;99539.00;;;;5037284;28;20243;-67
2024/01/05 00:26:03;;;;;;;13.87;7.47;;;;;7.60;99535.00;;;;5027976;28;20843;-67
2024/01/05 00:28:51;;;;;;;10.73;6.90;;;;;7.60;99528.00;;;;5038146;28;20224;-68
2024/01/05 00:31:37;;;;;;;11.27;6.57;;;;;7.60;99513.00;;;;5037098;28;20310;-68
2024/01/05 00:34:23;;;;;;;10.40;6.43;;;;;7.60;99516.00;;;;5041754;28;20246;-67
2024/01/05 00:37:10;;;;;;;6.83;4.90;;;;;7.60;99511.00;;;;5036465;28;20240;-69
2024/01/05 00:39:57;;;;;;;14.00;5.97;;;;;7.60;99506.00;;;;5029837;28;20229;-68
2024/01/05 00:42:45;;;;;;;12.03;4.90;;;;;7.60;99508.00;;;;5037315;28;20229;-70
2024/01/05 00:45:32;;;;;;;9.47;4.63;;;;;7.60;99510.00;;;;5038459;28;20237;-68
2024/01/05 00:48:18;;;;;;;5.00;3.57;;;;;7.60;99495.00;;;;5037050;28;20238;-68
2024/01/05 00:51:05;;;;;;;7.37;3.47;;;;;7.50;99492.00;;;;5046936;28;20228;-69
2024/01/05 00:53:52;;;;;;;9.70;3.50;;;;;7.50;99500.00;;;;5043586;28;20365;-70
2024/01/05 00:56:38;;;;;;;6.23;3.37;;;;;7.60;99501.00;;;;5033670;28;20742;-69
2024/01/05 00:59:26;;;;;;;8.03;3.57;;;;;7.70;99497.00;;;;5042345;28;20840;-68
2024/01/05 01:02:13;;;;;;;6.63;3.30;;;;;7.70;99508.00;;;;5036100;28;20233;-67
2024/01/05 01:04:59;;;;;;;8.47;4.20;;;;;7.70;99493.00;;;;5037518;28;20236;-69
2024/01/05 01:07:46;;;;;;;4.53;2.40;;;;;7.60;99474.00;;;;5045386;28;20307;-67
2024/01/05 01:10:32;;;;;;;7.17;3.10;;;;;7.60;99470.00;;;;5040994;28;20737;-69
2024/01/05 01:13:18;;;;;;;10.97;4.43;;;;;7.50;99470.00;;;;5034804;28;20886;-69
2024/01/05 01:16:06;;;;;;;8.40;3.23;;;;;7.50;99474.00;;;;5033772;28;20293;-69
2024/01/05 01:18:53;;;;;;;9.97;3.17;;;;;7.70;99480.00;;;;5040557;28;20229;-69
2024/01/05 01:21:39;;;;;;;5.17;3.37;;;;;7.80;99477.00;;;;5040536;28;20235;-70
2024/01/05 01:24:25;;;;;;;8.37;3.07;;;;;7.70;99476.00;;;;5045452;28;20261;-68
2024/01/05 01:27:12;;;;;;;3.37;2.60;;;;;7.70;99471.00;;;;5042643;28;20241;-69
2024/01/05 01:29:58;;;;;;;5.77;3.13;;;;;7.70;99467.00;;;;5028312;28;20849;-66
2024/01/05 01:32:46;;;;;;;3.70;2.80;;;;;7.70;99463.00;;;;5042825;28;20304;-68
2024/01/05 01:35:32;;;;;;;2.70;2.50;;;;;7.70;99468.00;;;;5037107;28;20226;-68
2024/01/05 01:38:18;;;;;;;7.53;3.03;;;;;7.70;99455.00;;;;5041161;28;20641;-68
2024/01/05 01:41:05;;;;;;;6.43;3.67;;;;;7.70;99454.00;;;;5037700;28;20810;-69
2024/01/05 01:43:51;;;;;;;8.43;2.83;;;;;7.70;99451.00;;;;5041323;28;20233;-69
2024/01/05 01:46:40;;;;;;;4.80;2.80;;;;;7.70;99448.00;;;;5040599;28;20238;-69
2024/01/05 01:49:28;;;;;;;9.53;2.90;;;;;7.70;99451.00;;;;5045530;28;20234;-68
2024/01/05 01:52:16;;;;;;;6.23;2.83;;;;;7.70;99450.00;;;;5043436;28;20229;-66
2024/01/05 01:55:03;;;;;;;6.60;3.20;;;;;7.60;99439.00;;;;5042818;28;20303;-68
2024/01/05 01:57:49;;;;;;;6.20;3.10;;;;;7.60;99439.00;;;;5037932;28;20289;-68
2024/01/05 02:00:36;;;;;;;7.60;2.40;;;;;7.50;99429.00;;;;5040855;28;20244;-69
2024/01/05 02:03:23;;;;;;;5.97;2.63;;;;;7.60;99435.00;;;;5040987;28;20606;-68
2024/01/05 02:06:10;;;;;;;5.80;3.40;;;;;7.60;99428.00;;;;5034751;28;20311;-64
2024/01/05 02:08:57;;;;;;;8.60;2.93;;;;;7.70;99426.00;;;;5041366;28;20221;-69
2024/01/05 02:11:43;;;;;;;3.87;2.90;;;;;7.70;99426.00;;;;5041772;28;20275;-68
2024/01/05 02:14:29;;;;;;;5.27;2.83;;;;;7.70;99425.00;;;;5041221;28;20227;-70
2024/01/05 02:17:28;;;;;;;4.97;2.93;;;;;7.70;99409.00;;;;5042029;28;20238;-71
2024/01/05 02:20:15;;;;;;;5.43;3.27;;;;;7.70;99405.00;;;;5037431;28;21048;-69
2024/01/05 02:23:08;;;;;;;4.13;3.07;;;;;7.70;99404.00;;;;5033295;28;20235;-70
2024/01/05 02:25:56;;;;;;;7.93;3.27;;;;;7.70;99403.00;;;;5031058;28;20281;-69
2024/01/05 02:28:42;;;;;;;4.50;2.83;;;;;7.70;99401.00;;;;5033746;28;20390;-69
2024/01/05 02:31:29;;;;;;;5.77;3.30;;;;;7.70;99400.00;;;;5041229;28;20717;-69
2024/01/05 02:34:15;;;;;;;6.70;2.70;;;;;7.70;99405.00;;;;5045053;28;20884;-69
2024/01/05 02:37:02;;;;;;;6.30;4.10;;;;;7.70;99402.00;;;;5036524;28;20307;-67
2024/01/05 02:39:48;;;;;;;6.00;3.10;;;;;7.70;99390.00;;;;5033060;28;20730;-69
2024/01/05 02:42:36;;;;;;;4.10;2.80;;;;;7.70;99389.00;;;;5042207;28;20227;-67
2024/01/05 02:45:24;;;;;;;9.07;2.77;;;;;7.70;99379.00;;;;5040796;28;20234;-68
2024/01/05 02:48:10;;;;;;;7.10;3.57;;;;;7.80;99378.00;;;;5036892;28;20223;-69
2024/01/05 02:50:58;;;;;;;10.60;3.03;;;;;7.70;99369.00;;;;5036057;28;20335;-69
2024/01/05 02:53:45;;;;;;;4.40;3.30;;;;;7.80;99364.00;;;;5037146;28;20230;-70
2024/01/05 02:56:33;;;;;;;6.83;3.33;;;;;7.70;99357.00;;;;5038572;28;20237;-70
2024/01/05 02:59:21;;;;;;;6.80;3.10;;;;;7.70;99363.00;;;;5042251;28;20252;-69
2024/01/05 03:02:07;;;;;;;7.60;3.23;;;;;7.60;99359.00;;;;5035044;28;20599;-68
2024/01/05 03:04:54;;;;;;;5.23;3.17;;;;;7.60;99350.00;;;;5024494;28;20227;-69
2024/01/05 03:07:40;;;;;;;11.03;3.70;;;;;7.60;99354.00;;;;5038595;28;20249;-69
2024/01/05 03:10:27;;;;;;;6.50;3.73;;;;;7.60;99347.00;;;;5039345;28;20233;-70
2024/01/05 03:13:13;;;;;;;7.67;3.70;;;;;7.50;99351.00;;;;5041101;28;20234;-67
2024/01/05 03:16:01;;;;;;;8.50;3.07;;;;;7.50;99338.00;;;;5042888;28;20611;-68
2024/01/05 03:18:47;;;;;;;3.50;2.43;;;;;7.40;99337.00;;;;5039346;28;20769;-64
2024/01/05 03:21:34;;;;;;;4.63;2.70;;;;;7.30;99336.00;;;;5045480;28;20226;-70
2024/01/05 03:24:20;;;;;;;5.87;2.87;;;;;7.30;99329.00;;;;5046832;28;20284;-69
2024/01/05 03:27:08;;;;;;;8.60;2.70;;;;;7.20;99330.00;;;;5041876;28;20236;-69
2024/01/05 03:29:56;;;;;;;4.60;2.80;;;;;7.10;99327.00;;;;5037730;28;20701;-69
2024/01/05 03:32:44;;;;;;;4.63;2.10;;;;;7.10;99316.00;;;;5047192;28;20700;-67
2024/01/05 03:35:31;;;;;;;7.00;2.97;;;;;7.00;99319.00;;;;5039859;28;20334;-71
2024/01/05 03:38:17;;;;;;;4.00;2.33;;;;;6.90;99315.00;;;;5039581;28;20297;-69
2024/01/05 03:41:04;;;;;;;3.30;2.20;;;;;6.90;99313.00;;;;5043843;28;20250;-67
2024/01/05 03:43:50;;;;;;;4.23;2.80;;;;;7.00;99314.00;;;;5045939;28;20228;-69
2024/01/05 03:46:37;;;;;;;3.13;2.30;;;;;7.00;99306.00;;;;5042206;28;20221;-71
2024/01/05 03:49:24;;;;;;;5.03;2.37;;;;;7.00;99316.00;;;;5047012;28;20291;-68
2024/01/05 03:52:10;;;;;;;4.70;2.00;;;;;7.00;99292.00;;;;5033545;28;20582;-68
2024/01/05 03:54:58;;;;;;;4.90;2.20;;;;;7.10;99286.00;;;;5024691;28;20221;-69
2024/01/05 03:57:45;;;;;;;4.83;2.37;;;;;7.10;99298.00;;;;5034164;28;20719;-68
2024/01/05 04:00:32;;;;;;;5.27;2.30;;;;;7.20;99285.00;;;;5039148;28;20314;-68
2024/01/05 04:03:18;;;;;;;4.67;2.33;;;;;7.10;99287.00;;;;5036121;28;20247;-68
2024/01/05 04:06:06;;;;;;;3.17;2.37;;;;;7.20;99286.00;;;;5044672;28;20704;-69
2024/01/05 04:08:52;;;;;;;2.80;2.40;;;;;7.20;99282.00;;;;5045430;28;20224;-67
2024/01/05 04:11:39;;;;;;;4.13;2.33;;;;;7.20;99284.00;;;;5043172;28;20236;-68
2024/01/05 04:14:26;;;;;;;3.47;2.57;;;;;7.20;99275.00;;;;5037567;28;20289;-70
2024/01/05 04:17:12;;;;;;;2.93;1.93;;;;;7.20;99268.00;;;;5042148;28;20237;-68
2024/01/05 04:19:59;;;;;;;2.77;1.90;;;;;7.20;99261.00;;;;5032679;28;20233;-68
2024/01/05 04:22:46;;;;;;;7.17;1.97;;;;;7.20;99265.00;;;;5044289;28;20607;-68
2024/01/05 04:25:32;;;;;;;4.57;2.00;;;;;7.20;99265.00;;;;5045387;28;20225;-70
2024/01/05 04:28:20;;;;;;;3.17;2.43;;;;;7.30;99265.00;;;;5038541;28;20756;-69
2024/01/05 04:31:07;;;;;;;5.37;2.07;;;;;7.20;99259.00;;;;5040183;28;20296;-68
2024/01/05 04:33:54;;;;;;;3.23;1.80;;;;;7.20;99251.00;;;;5046261;28;20225;-69
2024/01/05 04:36:41;;;;;;;3.37;2.10;;;;;7.20;99257.00;;;;5046693;28;20311;-70
2024/01/05 04:39:29;;;;;;;5.20;2.10;;;;;7.30;99252.00;;;;5046489;28;22096;-68
2024/01/05 04:42:16;;;;;;;3.40;1.70;;;;;7.40;99253.00;;;;5034720;28;20287;-68
2024/01/05 04:45:02;;;;;;;2.20;1.40;;;;;7.40;99251.00;;;;5041977;28;20295;-69
2024/01/05 04:47:49;;;;;;;3.47;1.60;;;;;7.40;99243.00;;;;5046202;28;20308;-70
2024/01/05 04:50:35;;;;;;;5.20;2.43;;;;;7.50;99243.00;;;;5044467;28;20229;-69
2024/01/05 04:53:21;;;;;;;2.93;1.57;;;;;7.40;99242.00;;;;5042419;28;20358;-68
2024/01/05 04:56:09;;;;;;;2.53;1.70;;;;;7.50;99239.00;;;;5036542;28;20229;-69
2024/01/05 04:58:56;;;;;;;5.70;1.93;;;;;7.50;99229.00;;;;5044076;28;20222;-70
2024/01/05 05:01:42;;;;;;;4.10;1.70;;;;;7.50;99229.00;;;;5046147;28;20237;-70
2024/01/05 05:04:29;;;;;;;2.93;1.77;;;;;7.50;99225.00;;;;5044946;28;20241;-69
2024/01/05 05:07:15;;;;;;;2.60;1.50;;;;;7.60;99225.00;;;;5044372;28;20235;-68
2024/01/05 05:10:01;;;;;;;8.93;2.13;;;;;7.70;99214.00;;;;5035779;28;20221;-70
2024/01/05 05:12:49;;;;;;;6.20;1.60;;;;;7.70;99215.00;;;;5044597;28;20834;-69
2024/01/05 05:15:36;;;;;;;6.77;1.90;;;;;7.70;99224.00;;;;5036997;28;20350;-70
2024/01/05 05:18:22;;;;;;;2.90;1.57;;;;;7.80;99227.00;;;;5046451;28;20238;-69
2024/01/05 05:21:09;;;;;;;3.43;1.40;;;;;7.90;99221.00;;;;5039633;28;20252;-69
2024/01/05 05:23:55;;;;;;;2.13;1.43;;;;;7.90;99216.00;;;;5038752;28;20231;-69
2024/01/05 05:26:42;;;;;;;2.10;1.60;;;;;7.90;99207.00;;;;5040474;28;20726;-69
2024/01/05 05:29:30;;;;;;;2.97;1.83;;;;;8.00;99208.00;;;;5043158;28;20657;-68
2024/01/05 05:32:16;;;;;;;7.53;2.00;;;;;8.00;99209.00;;;;5039181;28;20296;-70
2024/01/05 05:35:02;;;;;;;2.23;1.60;;;;;8.00;99207.00;;;;5034724;28;20246;-71
2024/01/05 05:37:49;;;;;;;2.73;1.57;;;;;8.00;99209.00;;;;5044197;28;20364;-69
2024/01/05 05:40:35;;;;;;;2.77;1.90;;;;;8.00;99197.00;;;;5041071;28;20230;-70
2024/01/05 05:43:21;;;;;;;4.10;1.40;;;;;8.00;99204.00;;;;5045355;28;20225;-68
2024/01/05 05:46:09;;;;;;;5.70;2.40;;;;;8.00;99190.00;;;;5044689;28;20820;-70
2024/01/05 05:48:55;;;;;;;9.20;2.37;;;;;8.10;99193.00;;;;5045356;28;20242;-69
2024/01/05 05:51:42;;;;;;;6.20;2.30;;;;;8.10;99196.00;;;;5038762;28;20809;-70
2024/01/05 05:54:28;;;;;;;3.10;1.93;;;;;8.00;99184.00;;;;5041497;28;20234;-68
2024/01/05 05:57:15;;;;;;;6.07;2.07;;;;;8.10;99191.00;;;;5043747;28;20252;-67
2024/01/05 06:00:03;;;;;;;5.17;1.57;;;;;8.10;99193.00;;;;5037802;28;20289;-72
2024/01/05 06:02:52;;;;;;;10.93;1.60;;;;;8.10;99182.00;;;;5043005;28;20226;-68
2024/01/05 06:05:39;;;;;;;5.30;1.87;;;;;8.10;99176.00;;;;5038067;28;20226;-68
2024/01/05 06:08:25;;;;;;;10.93;3.17;;;;;8.00;99186.00;;;;5042762;28;20251;-69
2024/01/05 06:11:13;;;;;;;2.10;1.77;;;;;8.00;99182.00;;;;5039208;28;20780;-68
2024/01/05 06:14:00;;;;;;;3.50;1.70;;;;;8.00;99182.00;;;;5040688;28;20247;-70
2024/01/05 06:16:46;;;;;;;3.20;1.80;;;;;7.80;99183.00;;;;5042694;28;20234;-68
2024/01/05 06:19:34;;;;;;;5.57;2.33;;;;;7.80;99174.00;;;;5040873;28;20230;-68
2024/01/05 06:22:20;;;;;;;5.57;1.47;;;;;7.80;99191.00;;;;5038347;28;20235;-70
2024/01/05 06:25:07;;;;;;;3.10;1.80;;;;;7.70;99177.00;;;;5036655;28;20223;-69
2024/01/05 06:27:53;;;;;;;7.10;1.80;;;;;7.60;99172.00;;;;5045025;28;20364;-70
2024/01/05 06:30:40;;;;;;;4.20;1.50;;;;;7.60;99182.00;;;;5035227;28;20864;-69
2024/01/05 06:33:26;;;;;;;4.90;2.00;;;;;7.60;99172.00;;;;5042148;28;20237;-69
2024/01/05 06:36:14;;;;;;;4.60;1.50;;;;;7.50;99175.00;;;;5038270;28;20250;-67
2024/01/05 06:39:00;;;;;;;6.00;1.90;;;;;7.60;99162.00;;;;5042174;28;20228;-70
2024/01/05 06:41:46;;;;;;;3.33;1.73;;;;;7.60;99160.00;;;;5042905;28;20376;-69
2024/01/05 06:44:33;;;;;;;6.73;1.70;;;;;7.60;99159.00;;;;5042133;28;20233;-69
2024/01/05 06:47:19;;;;;;;7.30;1.70;;;;;7.60;99160.00;;;;5038263;28;20230;-67
2024/01/05 06:50:07;;;;;;;4.87;1.50;;;;;7.50;99154.00;;;;5037940;28;20356;-68
2024/01/05 06:52:55;;;;;;;2.27;1.90;;;;;7.50;99160.00;;;;5035671;28;20233;-69
2024/01/05 06:55:41;;;;;;;4.10;1.60;;;;;7.50;99158.00;;;;5032302;28;20237;-69
2024/01/05 06:58:28;;;;;;;3.43;1.50;;;;;7.50;99149.00;;;;5044088;28;20322;-69
2024/01/05 07:01:16;;;;;;;2.43;1.60;;;;;7.50;99158.00;;;;5038907;28;20295;-69
2024/01/05 07:04:03;;;;;;;2.23;1.83;;;;;7.40;99160.00;;;;5035872;28;20811;-68
2024/01/05 07:06:50;;;;;;;4.80;1.67;;;;;7.40;99159.00;;;;5043226;28;20234;-71
2024/01/05 07:09:37;;;;;;;8.03;1.87;;;;;7.40;99167.00;;;;5031382;28;20332;-69
2024/01/05 07:12:24;;;;;;;3.10;1.87;;;;;7.40;99159.00;;;;5041066;28;20454;-72
2024/01/05 07:15:11;;;;;;;3.63;1.40;;;;;7.40;99168.00;;;;5033971;28;20607;-71
2024/01/05 07:17:57;;;;;;;2.47;1.63;;;;;7.30;99163.00;;;;5042429;28;20226;-71
2024/01/05 07:20:43;;;;;;;4.07;1.50;;;;;7.30;99165.00;;;;5039551;28;20260;-72
2024/01/05 07:23:29;;;;;;;2.83;1.80;;;;;7.40;99173.00;;;;5024408;28;20769;-71
2024/01/05 07:26:22;;;;;;;4.13;1.70;;;;;7.40;99170.00;;;;5033899;28;20248;-70
2024/01/05 07:29:08;;;;;;;5.70;1.63;;;;;7.50;99166.00;;;;5036896;28;20274;-70
2024/01/05 07:31:54;;;;;;;1.30;1.20;;;;;7.50;99175.00;;;;5040579;28;20236;-71
2024/01/05 07:34:40;;;;;;;4.17;1.50;;;;;7.50;99165.00;;;;5030285;28;20618;-69
2024/01/05 07:37:27;;;;;;;4.13;2.00;;;;;7.60;99168.00;;;;5037775;28;20238;-70
2024/01/05 07:40:13;;;;;;;2.07;1.50;;;;;7.60;99174.00;;;;5034746;28;20244;-69
2024/01/05 07:43:02;;;;;;;3.10;1.63;;;;;7.70;99167.00;;;;5034649;28;20316;-71
2024/01/05 07:45:49;;;;;;;2.53;1.53;;;;;7.80;99161.00;;;;5030418;28;20309;-71
2024/01/05 07:48:39;;;;;;;2.53;1.50;;;;;7.90;99163.00;;;;5031063;28;20301;-69
2024/01/05 07:51:26;;;;;;;3.57;1.67;;;;;8.00;99155.00;;;;5033893;28;20813;-70
2024/01/05 07:54:13;;;;;;;2.77;1.63;;;;;8.10;99157.00;;;;5025018;28;20230;-70
2024/01/05 07:56:59;;;;;;;7.63;2.53;;;;;8.10;99159.00;;;;5035271;28;20493;-71
2024/01/05 07:59:47;;;;;;;1.80;1.40;;;;;8.10;99161.00;;;;5044278;28;20232;-70
2024/01/05 08:02:33;;;;;;;3.60;1.50;;;;;8.00;99156.00;;;;5042723;28;20278;-70
2024/01/05 08:05:20;;;;;;;4.03;2.07;;;;;8.00;99161.00;;;;5035096;28;20292;-70
2024/01/05 08:08:06;;;;;;;1.80;1.50;;;;;7.90;99160.00;;;;5052425;28;20254;-70
2024/01/05 08:10:53;;;;;;;2.67;1.43;;;;;7.90;99156.00;;;;5046608;28;20604;-70
2024/01/05 08:13:40;;;;;;;6.80;1.80;;;;;8.00;99155.00;;;;5054908;28;20235;-68
2024/01/05 08:16:28;;;;;;;7.90;1.93;;;;;8.00;99156.00;;;;5039473;28;20353;-71
2024/01/05 08:19:14;;;;;;;2.33;1.73;;;;;8.00;99157.00;;;;5049271;28;20277;-70
2024/01/05 08:22:01;;;;;;;1.60;1.50;;;;;8.00;99152.00;;;;5041506;28;20235;-73
2024/01/05 08:24:47;;;;;;;2.13;1.63;;;;;8.00;99147.00;;;;5043220;28;20321;-70
2024/01/05 08:27:33;;;;;;;1.57;1.10;;;;;8.00;99166.00;;;;5035436;28;20836;-70
2024/01/05 08:30:20;;;;;;;3.77;1.63;;;;;8.00;99155.00;;;;5043200;28;20237;-70
2024/01/05 08:33:10;;;;;;;6.80;1.70;;;;;8.00;99162.00;;;;5037854;28;20226;-70
2024/01/05 08:35:57;;;;;;;4.67;1.67;;;;;8.20;99157.00;;;;5037813;28;20239;-69
2024/01/05 08:38:45;;;;;;;3.63;2.10;;;;;8.20;99156.00;;;;5043834;28;20238;-71
2024/01/05 08:41:31;;;;;;;1.63;1.40;;;;;8.20;99150.00;;;;5046336;28;20646;-70
2024/01/05 08:44:18;;;;;;;5.17;1.80;;;;;8.20;99155.00;;;;5039574;28;20258;-72
2024/01/05 08:47:05;;;;;;;1.80;1.23;;;;;8.20;99147.00;;;;5046502;28;20247;-70
2024/01/05 08:49:53;;;;;;;1.57;1.47;;;;;8.30;99155.00;;;;5046687;28;20238;-70
2024/01/05 08:52:39;;;;;;;2.83;1.30;;;;;8.40;99139.00;;;;5041690;28;20739;-71
2024/01/05 08:55:25;;;;;;;2.17;1.83;;;;;8.50;99144.00;;;;5044012;28;20601;-71
2024/01/05 08:58:11;;;;;;;1.97;1.37;;;;;8.50;99143.00;;;;5036767;28;20243;-69
2024/01/05 09:00:58;;;;;;;2.93;1.53;;;;;8.50;99142.00;;;;5044503;28;20366;-71
2024/01/05 09:03:44;;;;;;;2.30;1.60;;;;;8.50;99147.00;;;;5050973;28;20236;-71
2024/01/05 09:06:33;;;;;;;1.50;1.40;;;;;8.50;99137.00;;;;5041491;28;20240;-70
2024/01/05 09:09:19;;;;;;;2.10;1.33;;;;;8.50;99142.00;;;;5039877;28;20767;-70
2024/01/05 09:12:06;;;;;;;1.90;1.50;;;;;8.50;99134.00;;;;5044028;28;20231;-70
2024/01/05 09:14:52;;;;;;;1.43;1.20;;;;;8.50;99152.00;;;;5036002;28;20335;-73
2024/01/05 09:17:39;;;;;;;1.40;1.30;;;;;8.40;99150.00;;;;5047366;28;20292;-70
2024/01/05 09:20:25;;;;;;;2.40;1.30;;;;;8.50;99147.00;;;;5045154;28;20238;-71
2024/01/05 09:23:14;;;;;;;1.80;1.60;;;;;8.50;99152.00;;;;5041720;28;20599;-70
2024/01/05 09:26:00;;;;;;;1.37;1.20;;;;;8.60;99148.00;;;;5038930;28;20239;-71
2024/01/05 09:28:46;;;;;;;3.30;1.40;;;;;8.60;99157.00;;;;5041300;28;20364;-69
2024/01/05 09:31:32;;;;;;;6.10;1.60;;;;;8.60;99153.00;;;;5044834;28;20233;-68
2024/01/05 09:34:19;;;;;;;6.00;1.20;;;;;8.60;99153.00;;;;5039433;28;20235;-71
2024/01/05 09:37:06;;;;;;;3.23;1.20;;;;;8.60;99137.00;;;;5045499;28;20274;-70
2024/01/05 09:39:54;;;;;;;1.37;1.20;;;;;8.70;99143.00;;;;5043627;28;20242;-71
2024/01/05 09:42:41;;;;;;;1.60;1.03;;;;;8.70;99159.00;;;;5045355;28;20263;-66
2024/01/05 09:45:28;;;;;;;0.97;0.97;;;;;8.70;99167.00;;;;5039559;28;20734;-71
2024/01/05 09:48:15;;;;;;;2.60;1.03;;;;;8.90;99171.00;;;;5045338;28;20227;-72
2024/01/05 09:51:04;;;;;;;1.13;1.00;;;;;8.80;99159.00;;;;5033358;28;20293;-69
2024/01/05 09:53:50;;;;;;;1.60;0.80;;;;;8.80;99166.00;;;;5043847;28;20704;-71
2024/01/05 09:56:39;;;;;;;1.77;0.70;;;;;8.90;99174.00;;;;5041163;28;20286;-71
2024/01/05 09:59:26;;;;;;;0.70;0.70;;;;;8.90;99164.00;;;;5036538;28;20240;-71
2024/01/05 10:02:19;;;;;;;0.70;0.70;;;;;8.90;99173.00;;;;5041886;28;20856;-71
2024/01/05 10:05:09;;;;;;;0.80;0.80;;;;;8.90;99164.00;;;;5043489;28;20231;-69
2024/01/05 10:07:56;;;;;;;1.00;0.80;;;;;8.80;99165.00;;;;5042217;28;20241;-72
2024/01/05 10:10:46;;;;;;;0.80;0.80;;;;;8.80;99164.00;;;;5040895;28;20657;-67
2024/01/05 10:13:36;;;;;;;0.57;0.57;;;;;8.70;99167.00;;;;5040226;28;20240;-69
2024/01/05 10:16:27;;;;;;;1.77;0.77;;;;;8.70;99163.00;;;;5038676;28;20239;-70
2024/01/05 10:19:15;;;;;;;1.17;0.80;;;;;8.70;99154.00;;;;5037097;28;20278;-67
2024/01/05 10:22:10;;;;;;;4.60;0.93;;;;;8.70;99161.00;;;;5043308;28;20258;-69
2024/01/05 10:25:16;;;;;;;0.70;0.70;;;;;8.70;99172.00;;;;5031989;28;20244;-70
2024/01/05 10:28:20;;;;;;;1.10;1.00;;;;;8.80;99168.00;;;;5043072;28;20328;-71
2024/01/05 10:31:13;;;;;;;1.30;0.80;;;;;8.80;99161.00;;;;5044376;28;20354;-70
2024/01/05 10:34:00;;;;;;;0.70;0.70;;;;;8.70;99162.00;;;;5040253;28;21027;-70
2024/01/05 10:36:47;;;;;;;0.80;0.80;;;;;8.70;99169.00;;;;5043819;28;20296;-69
2024/01/05 10:39:35;;;;;;;0.80;0.80;;;;;8.60;99160.00;;;;5042752;28;20236;-65
2024/01/05 10:42:22;;;;;;;0.87;0.80;;;;;8.60;99164.00;;;;5039109;28;20316;-69
2024/01/05 10:45:09;;;;;;;0.80;0.80;;;;;8.60;99161.00;;;;5054963;28;20238;-71
2024/01/05 10:47:58;;;;;;;1.93;0.87;;;;;8.70;99159.00;;;;5038006;28;20237;-69
2024/01/05 10:50:45;;;;;;;1.60;0.93;;;;;8.80;99145.00;;;;5026753;28;20251;-72
2024/01/05 10:53:31;;;;;;;1.20;1.10;;;;;8.90;99152.00;;;;5042349;28;20288;-70
2024/01/05 10:56:22;;;;;;;0.70;0.70;;;;;9.00;99164.00;;;;5034738;28;20642;-70
2024/01/05 10:59:10;;;;;;;2.50;0.90;;;;;9.00;99162.00;;;;5030139;28;20778;-71
2024/01/05 11:01:59;;;;;;;2.33;1.10;;;;;8.90;99153.00;;;;5040165;28;20918;-69
2024/01/05 11:04:49;;;;;;;0.70;0.70;;;;;8.90;99157.00;;;;5040863;28;20253;-69
2024/01/05 11:07:36;;;;;;;1.13;0.73;;;;;8.90;99153.00;;;;5048503;28;20228;-71
2024/01/05 11:10:32;;;;;;;1.17;1.07;;;;;8.80;99157.00;;;;5032341;28;20866;-72
2024/01/05 11:13:55;;;;;;;0.70;0.70;;;;;8.70;99154.00;;;;5036657;28;20235;-67
2024/01/05 11:17:02;;;;;;;1.07;1.07;;;;;8.70;99163.00;;;;5049676;28;20236;-70
2024/01/05 11:19:57;;;;;;;2.83;1.00;;;;;8.60;99157.00;;;;5038997;28;20239;-70
2024/01/05 11:22:48;;;;;;;0.80;0.80;;;;;8.60;99176.00;;;;5029778;28;20229;-70
2024/01/05 11:25:35;;;;;;;1.10;0.90;;;;;8.60;99161.00;;;;5038553;28;20217;-70
2024/01/05 11:28:35;;;;;;;0.77;0.70;;;;;8.60;99171.00;;;;5038347;28;20234;-70
2024/01/05 11:31:52;;;;;;;1.37;0.90;;;;;8.50;99166.00;;;;5029310;28;20848;-70
2024/01/05 11:34:40;;;;;;;0.73;0.73;;;;;8.30;99182.00;;;;5044816;28;20238;-70
2024/01/05 11:37:30;;;;;;;4.00;1.00;;;;;8.20;99167.00;;;;5035592;28;20461;-71
2024/01/05 11:40:27;;;;;;;1.40;1.23;;;;;8.20;99177.00;;;;5041256;28;20226;-67
2024/01/05 11:43:35;;;;;;;0.90;0.90;;;;;8.10;99176.00;;;;5049856;28;20600;-70
2024/01/05 11:46:43;;;;;;;1.00;1.00;;;;;8.10;99168.00;;;;5046323;28;20239;-69
2024/01/05 11:49:37;;;;;;;1.17;1.03;;;;;8.10;99164.00;;;;5035957;28;20232;-69
2024/01/05 11:52:23;;;;;;;1.07;0.93;;;;;8.10;99160.00;;;;5047899;28;20657;-70
2024/01/05 11:55:12;;;;;;;0.70;0.70;;;;;8.20;99162.00;;;;5041901;28;20234;-66
2024/01/05 11:57:58;;;;;;;3.13;1.00;;;;;8.20;99153.00;;;;5047252;28;20243;-69
2024/01/05 12:00:46;;;;;;;1.10;1.00;;;;;8.20;99152.00;;;;5048062;28;20307;-70
2024/01/05 12:03:33;;;;;;;2.93;1.00;;;;;8.20;99149.00;;;;5044018;28;20228;-70
2024/01/05 12:06:21;;;;;;;1.23;1.13;;;;;8.20;99154.00;;;;5043552;28;20309;-70
2024/01/05 12:09:08;;;;;;;3.23;0.90;;;;;8.20;99146.00;;;;5044447;28;20230;-73
2024/01/05 12:12:16;;;;;;;3.03;1.10;;;;;8.20;99151.00;;;;5043996;28;20242;-68
2024/01/05 12:15:09;;;;;;;1.00;0.90;;;;;8.20;99136.00;;;;5040774;28;20981;-71
2024/01/05 12:18:02;;;;;;;2.33;0.93;;;;;8.30;99134.00;;;;5055385;28;20226;-65
2024/01/05 12:20:54;;;;;;;0.90;0.90;;;;;8.30;99148.00;;;;5035023;28;20234;-70
2024/01/05 12:23:40;;;;;;;2.47;0.90;;;;;8.30;99137.00;;;;5043634;28;20242;-70
2024/01/05 12:26:31;;;;;;;0.97;0.97;;;;;8.40;99140.00;;;;5041422;28;20320;-70
2024/01/05 12:29:18;;;;;;;1.77;0.87;;;;;8.40;99144.00;;;;5039137;28;20221;-67
2024/01/05 12:32:07;;;;;;;2.93;1.00;;;;;8.40;99143.00;;;;5040854;28;20319;-70
2024/01/05 12:34:54;;;;;;;0.90;0.90;;;;;8.30;99143.00;;;;5042203;28;20234;-70
2024/01/05 12:37:50;;;;;;;5.17;0.80;;;;;8.30;99139.00;;;;5043710;28;20364;-72
2024/01/05 12:40:37;;;;;;;0.90;0.90;;;;;8.40;99142.00;;;;5033126;28;20274;-70
2024/01/05 12:43:23;;;;;;;1.30;1.13;;;;;8.40;99148.00;;;;5034673;28;20236;-71
2024/01/05 12:46:11;;;;;;;0.70;0.70;;;;;8.40;99157.00;;;;5035236;28;20232;-69
2024/01/05 12:48:58;;;;;;;1.30;1.10;;;;;8.40;99148.00;;;;5033730;28;20358;-70
2024/01/05 12:51:47;;;;;;;0.80;0.80;;;;;8.40;99139.00;;;;5037709;28;20379;-69
2024/01/05 12:54:40;;;;;;;7.53;1.50;;;;;8.30;99142.00;;;;5035124;28;20238;-70
2024/01/05 12:57:27;;;;;;;1.17;1.17;;;;;8.40;99145.00;;;;5036461;28;20227;-69
2024/01/05 13:00:14;;;;;;;2.57;1.30;;;;;8.40;99148.00;;;;5037030;28;20234;-70
2024/01/05 13:03:02;;;;;;;2.13;1.13;;;;;8.40;99141.00;;;;5040084;28;20319;-69
2024/01/05 13:05:48;;;;;;;2.03;1.23;;;;;8.40;99145.00;;;;5046224;28;20731;-70
2024/01/05 13:08:35;;;;;;;1.73;1.10;;;;;8.50;99140.00;;;;5033466;28;20756;-71
2024/01/05 13:11:22;;;;;;;1.40;1.10;;;;;8.50;99155.00;;;;5044010;28;20640;-71
2024/01/05 13:14:08;;;;;;;6.03;1.77;;;;;8.50;99135.00;;;;5038849;28;20293;-71
2024/01/05 13:16:54;;;;;;;0.90;0.90;;;;;8.50;99144.00;;;;5041211;28;20238;-71
2024/01/05 13:19:42;;;;;;;1.10;0.90;;;;;8.50;99148.00;;;;5037871;28;20274;-69
2024/01/05 13:22:29;;;;;;;2.40;1.10;;;;;8.40;99153.00;;;;5037316;28;20235;-71
2024/01/05 13:25:19;;;;;;;1.30;0.97;;;;;8.40;99152.00;;;;5036809;28;20234;-69
2024/01/05 13:28:05;;;;;;;1.13;1.10;;;;;8.40;99154.00;;;;5040238;28;20690;-69
2024/01/05 13:30:52;;;;;;;1.73;1.07;;;;;8.30;99147.00;;;;5042788;28;20358;-71
2024/01/05 13:33:40;;;;;;;1.33;0.90;;;;;8.30;99151.00;;;;5037883;28;20231;-69
2024/01/05 13:36:28;;;;;;;1.47;1.20;;;;;8.30;99162.00;;;;5041989;28;20589;-71
2024/01/05 13:39:14;;;;;;;2.03;1.20;;;;;8.30;99159.00;;;;5035115;28;20375;-69
2024/01/05 13:42:01;;;;;;;1.63;1.10;;;;;8.30;99158.00;;;;5024102;28;20503;-69
2024/01/05 13:44:47;;;;;;;2.67;1.07;;;;;8.20;99166.00;;;;5037130;28;20316;-67
2024/01/05 13:47:34;;;;;;;1.60;1.40;;;;;8.20;99163.00;;;;5030356;28;20226;-67
2024/01/05 13:50:20;;;;;;;2.43;1.63;;;;;8.30;99158.00;;;;5029413;28;20832;-67
2024/01/05 13:53:11;;;;;;;1.20;1.10;;;;;8.20;99160.00;;;;5030139;28;20271;-67
2024/01/05 13:55:58;;;;;;;1.60;1.47;;;;;8.20;99165.00;;;;5036187;28;20398;-68
2024/01/05 13:58:44;;;;;;;1.03;1.03;;;;;8.20;99165.00;;;;5033235;28;20610;-68
2024/01/05 14:01:32;;;;;;;1.43;1.00;;;;;8.20;99166.00;;;;5022453;28;20747;-68
2024/01/05 14:04:18;;;;;;;1.40;1.30;;;;;8.20;99164.00;;;;5031880;28;20227;-68
2024/01/05 14:07:05;;;;;;;3.00;1.57;;;;;8.10;99171.00;;;;5023978;28;20243;-70
2024/01/05 14:09:53;;;;;;;2.30;1.33;;;;;8.20;99166.00;;;;5027554;28;20771;-69